sensor_id;sensor_type;location;lat;lon;timestamp;pressure;altitude;pressure_sealevel;temperature;humidity
76594;BME280;65482;50.240;14.302;2024-03-23T00:52:27;98812.88;;;11.75;65.79
76594;BME280;65482;50.240;14.302;2024-03-23T00:54:53;98815.09;;;11.72;65.68
76594;BME280;65482;50.240;14.302;2024-03-23T00:57:18;98808.34;;;11.69;65.84
76594;BME280;65482;50.240;14.302;2024-03-23T00:59:44;98801.28;;;11.70;65.61
76594;BME280;65482;50.240;14.302;2024-03-23T01:02:10;98802.25;;;11.69;65.31
76594;BME280;65482;50.240;14.302;2024-03-23T01:04:35;98803.91;;;11.70;64.84
76594;BME280;65482;50.240;14.302;2024-03-23T01:07:01;98795.59;;;11.73;64.83
76594;BME280;65482;50.240;14.302;2024-03-23T01:09:26;98795.78;;;11.71;64.67
76594;BME280;65482;50.240;14.302;2024-03-23T01:11:52;98776.13;;;11.74;64.25
76594;BME280;65482;50.240;14.302;2024-03-23T01:14:17;98774.91;;;11.77;63.82
76594;BME280;65482;50.240;14.302;2024-03-23T01:16:43;98786.47;;;11.75;63.78
76594;BME280;65482;50.240;14.302;2024-03-23T01:19:09;98782.44;;;11.80;63.98
76594;BME280;65482;50.240;14.302;2024-03-23T01:21:34;98779.38;;;11.76;64.60
76594;BME280;65482;50.240;14.302;2024-03-23T01:24:00;98783.81;;;11.75;64.96
76594;BME280;65482;50.240;14.302;2024-03-23T01:26:26;98779.91;;;11.71;65.31
76594;BME280;65482;50.240;14.302;2024-03-23T01:28:52;98777.66;;;11.68;66.23
76594;BME280;65482;50.240;14.302;2024-03-23T01:31:17;98767.47;;;11.65;66.15
76594;BME280;65482;50.240;14.302;2024-03-23T01:33:43;98762.56;;;11.62;66.39
76594;BME280;65482;50.240;14.302;2024-03-23T01:36:09;98756.38;;;11.55;66.64
76594;BME280;65482;50.240;14.302;2024-03-23T01:38:34;98753.66;;;11.48;67.21
76594;BME280;65482;50.240;14.302;2024-03-23T01:41:00;98758.84;;;11.42;66.89
76594;BME280;65482;50.240;14.302;2024-03-23T01:43:26;98756.47;;;11.32;67.43
76594;BME280;65482;50.240;14.302;2024-03-23T01:45:52;98755.31;;;11.20;67.42
76594;BME280;65482;50.240;14.302;2024-03-23T01:48:20;98752.69;;;11.05;68.24
76594;BME280;65482;50.240;14.302;2024-03-23T01:50:46;98751.69;;;10.91;68.99
76594;BME280;65482;50.240;14.302;2024-03-23T01:53:12;98736.13;;;10.81;68.85
76594;BME280;65482;50.240;14.302;2024-03-23T01:55:39;98728.75;;;10.77;68.55
76594;BME280;65482;50.240;14.302;2024-03-23T01:58:04;98733.75;;;10.71;68.38
76594;BME280;65482;50.240;14.302;2024-03-23T02:00:30;98727.91;;;10.61;68.39
76594;BME280;65482;50.240;14.302;2024-03-23T02:02:55;98728.81;;;10.53;68.89
76594;BME280;65482;50.240;14.302;2024-03-23T02:05:21;98718.63;;;10.50;68.88
76594;BME280;65482;50.240;14.302;2024-03-23T02:07:47;98718.16;;;10.47;69.39
76594;BME280;65482;50.240;14.302;2024-03-23T02:10:13;98712.25;;;10.45;69.49
76594;BME280;65482;50.240;14.302;2024-03-23T02:12:39;98709.41;;;10.46;69.25
76594;BME280;65482;50.240;14.302;2024-03-23T02:15:05;98703.59;;;10.36;69.54
76594;BME280;65482;50.240;14.302;2024-03-23T02:17:33;98692.41;;;10.34;69.87
76594;BME280;65482;50.240;14.302;2024-03-23T02:19:59;98692.63;;;10.24;70.30
76594;BME280;65482;50.240;14.302;2024-03-23T02:22:25;98690.69;;;10.18;70.14
76594;BME280;65482;50.240;14.302;2024-03-23T02:24:59;98679.03;;;10.12;70.03
76594;BME280;65482;50.240;14.302;2024-03-23T02:27:25;98679.75;;;10.06;69.75
76594;BME280;65482;50.240;14.302;2024-03-23T02:29:50;98671.59;;;10.01;70.00
76594;BME280;65482;50.240;14.302;2024-03-23T02:32:16;98670.09;;;9.99;70.04
76594;BME280;65482;50.240;14.302;2024-03-23T02:34:41;98665.19;;;9.95;69.94
76594;BME280;65482;50.240;14.302;2024-03-23T02:37:11;98665.19;;;9.95;70.24
76594;BME280;65482;50.240;14.302;2024-03-23T02:39:37;98660.75;;;9.96;70.57
76594;BME280;65482;50.240;14.302;2024-03-23T02:42:02;98659.84;;;9.89;70.81
76594;BME280;65482;50.240;14.302;2024-03-23T02:44:28;98651.09;;;9.88;70.33
76594;BME280;65482;50.240;14.302;2024-03-23T02:46:54;98658.00;;;9.89;70.63
76594;BME280;65482;50.240;14.302;2024-03-23T02:49:19;98655.91;;;9.85;70.65
76594;BME280;65482;50.240;14.302;2024-03-23T02:51:46;98669.09;;;9.85;70.27
76594;BME280;65482;50.240;14.302;2024-03-23T02:54:14;98652.44;;;9.84;70.26
76594;BME280;65482;50.240;14.302;2024-03-23T02:56:39;98653.63;;;9.82;70.42
76594;BME280;65482;50.240;14.302;2024-03-23T02:59:05;98647.53;;;9.81;70.52
76594;BME280;65482;50.240;14.302;2024-03-23T03:01:31;98638.00;;;9.80;70.51
76594;BME280;65482;50.240;14.302;2024-03-23T03:03:56;98634.72;;;9.78;70.53
76594;BME280;65482;50.240;14.302;2024-03-23T03:06:26;98632.06;;;9.78;70.37
76594;BME280;65482;50.240;14.302;2024-03-23T03:08:52;98623.38;;;9.78;70.49
76594;BME280;65482;50.240;14.302;2024-03-23T03:11:17;98626.97;;;9.76;70.61
76594;BME280;65482;50.240;14.302;2024-03-23T03:13:43;98622.09;;;9.73;70.28
76594;BME280;65482;50.240;14.302;2024-03-23T03:16:10;98629.19;;;9.73;70.45
76594;BME280;65482;50.240;14.302;2024-03-23T03:18:35;98625.06;;;9.70;70.49
76594;BME280;65482;50.240;14.302;2024-03-23T03:21:01;98622.63;;;9.69;70.55
76594;BME280;65482;50.240;14.302;2024-03-23T03:23:27;98618.97;;;9.70;70.71
76594;BME280;65482;50.240;14.302;2024-03-23T03:25:53;98605.81;;;9.70;70.46
76594;BME280;65482;50.240;14.302;2024-03-23T03:28:18;98593.19;;;9.65;70.54
76594;BME280;65482;50.240;14.302;2024-03-23T03:30:45;98582.34;;;9.60;70.46
76594;BME280;65482;50.240;14.302;2024-03-23T03:33:10;98586.34;;;9.56;70.32
76594;BME280;65482;50.240;14.302;2024-03-23T03:35:36;98583.78;;;9.48;70.40
76594;BME280;65482;50.240;14.302;2024-03-23T03:38:04;98580.66;;;9.44;70.81
76594;BME280;65482;50.240;14.302;2024-03-23T03:40:29;98580.56;;;9.38;70.92
76594;BME280;65482;50.240;14.302;2024-03-23T03:42:55;98573.53;;;9.30;71.25
76594;BME280;65482;50.240;14.302;2024-03-23T03:45:21;98572.59;;;9.23;71.24
76594;BME280;65482;50.240;14.302;2024-03-23T03:47:47;98574.94;;;9.18;71.43
76594;BME280;65482;50.240;14.302;2024-03-23T03:50:12;98567.38;;;9.14;71.39
76594;BME280;65482;50.240;14.302;2024-03-23T03:52:38;98561.84;;;9.09;71.62
76594;BME280;65482;50.240;14.302;2024-03-23T03:55:12;98551.00;;;9.04;71.56
76594;BME280;65482;50.240;14.302;2024-03-23T03:57:38;98557.66;;;8.92;71.88
76594;BME280;65482;50.240;14.302;2024-03-23T04:00:04;98555.56;;;8.87;72.21
76594;BME280;65482;50.240;14.302;2024-03-23T04:02:30;98553.09;;;8.86;71.84
76594;BME280;65482;50.240;14.302;2024-03-23T04:04:55;98553.56;;;8.89;72.36
76594;BME280;65482;50.240;14.302;2024-03-23T04:07:21;98551.59;;;8.91;72.49
76594;BME280;65482;50.240;14.302;2024-03-23T04:09:48;98547.72;;;9.02;71.87
76594;BME280;65482;50.240;14.302;2024-03-23T04:12:15;98553.09;;;9.09;71.31
76594;BME280;65482;50.240;14.302;2024-03-23T04:14:40;98540.44;;;9.12;70.98
76594;BME280;65482;50.240;14.302;2024-03-23T04:17:06;98552.78;;;9.12;71.46
76594;BME280;65482;50.240;14.302;2024-03-23T04:19:31;98552.78;;;9.12;71.37
76594;BME280;65482;50.240;14.302;2024-03-23T04:21:57;98546.50;;;9.13;71.17
76594;BME280;65482;50.240;14.302;2024-03-23T04:24:23;98540.72;;;9.18;71.10
76594;BME280;65482;50.240;14.302;2024-03-23T04:26:49;98542.50;;;9.25;70.54
76594;BME280;65482;50.240;14.302;2024-03-23T04:29:15;98534.41;;;9.27;70.57
76594;BME280;65482;50.240;14.302;2024-03-23T04:31:40;98548.41;;;9.27;70.39
76594;BME280;65482;50.240;14.302;2024-03-23T04:34:06;98545.22;;;9.32;70.65
76594;BME280;65482;50.240;14.302;2024-03-23T04:36:32;98543.72;;;9.38;70.77
76594;BME280;65482;50.240;14.302;2024-03-23T04:38:59;98540.72;;;9.41;70.62
76594;BME280;65482;50.240;14.302;2024-03-23T04:41:25;98536.09;;;9.43;70.81
76594;BME280;65482;50.240;14.302;2024-03-23T04:43:51;98537.75;;;9.44;70.52
76594;BME280;65482;50.240;14.302;2024-03-23T04:46:17;98528.66;;;9.46;70.31
76594;BME280;65482;50.240;14.302;2024-03-23T04:48:42;98534.41;;;9.50;70.12
76594;BME280;65482;50.240;14.302;2024-03-23T04:51:10;98518.44;;;9.51;70.01
76594;BME280;65482;50.240;14.302;2024-03-23T04:53:38;98519.72;;;9.55;69.94
76594;BME280;65482;50.240;14.302;2024-03-23T04:56:03;98516.53;;;9.60;69.81
76594;BME280;65482;50.240;14.302;2024-03-23T04:58:29;98508.63;;;9.60;69.79
76594;BME280;65482;50.240;14.302;2024-03-23T05:00:56;98511.34;;;9.67;69.24
76594;BME280;65482;50.240;14.302;2024-03-23T05:03:22;98507.09;;;9.66;69.22
76594;BME280;65482;50.240;14.302;2024-03-23T05:05:48;98502.66;;;9.66;69.38
76594;BME280;65482;50.240;14.302;2024-03-23T05:08:14;98504.78;;;9.71;69.29
76594;BME280;65482;50.240;14.302;2024-03-23T05:10:42;98499.59;;;9.78;69.31
76594;BME280;65482;50.240;14.302;2024-03-23T05:13:07;98481.50;;;9.74;69.56
76594;BME280;65482;50.240;14.302;2024-03-23T05:15:33;98487.59;;;9.75;69.63
76594;BME280;65482;50.240;14.302;2024-03-23T05:17:59;98483.41;;;9.81;69.44
76594;BME280;65482;50.240;14.302;2024-03-23T05:20:25;98479.78;;;9.82;69.84
76594;BME280;65482;50.240;14.302;2024-03-23T05:22:50;98489.88;;;9.78;69.83
76594;BME280;65482;50.240;14.302;2024-03-23T05:25:16;98482.59;;;9.80;69.84
76594;BME280;65482;50.240;14.302;2024-03-23T05:27:41;98481.88;;;9.86;69.86
76594;BME280;65482;50.240;14.302;2024-03-23T05:30:07;98475.00;;;9.85;70.20
76594;BME280;65482;50.240;14.302;2024-03-23T05:32:34;98459.19;;;9.85;70.06
76594;BME280;65482;50.240;14.302;2024-03-23T05:35:00;98462.81;;;9.84;69.87
76594;BME280;65482;50.240;14.302;2024-03-23T05:37:26;98457.81;;;9.89;70.21
76594;BME280;65482;50.240;14.302;2024-03-23T05:39:52;98452.81;;;9.80;70.70
76594;BME280;65482;50.240;14.302;2024-03-23T05:42:17;98455.75;;;9.85;70.44
76594;BME280;65482;50.240;14.302;2024-03-23T05:44:44;98454.38;;;9.89;70.50
76594;BME280;65482;50.240;14.302;2024-03-23T05:47:10;98442.66;;;9.91;70.65
76594;BME280;65482;50.240;14.302;2024-03-23T05:49:37;98435.56;;;9.92;70.94
76594;BME280;65482;50.240;14.302;2024-03-23T05:52:02;98434.00;;;9.98;70.82
76594;BME280;65482;50.240;14.302;2024-03-23T05:54:31;98436.66;;;9.98;70.70
76594;BME280;65482;50.240;14.302;2024-03-23T05:56:57;98435.63;;;9.99;70.89
76594;BME280;65482;50.240;14.302;2024-03-23T05:59:23;98433.22;;;9.97;71.18
76594;BME280;65482;50.240;14.302;2024-03-23T06:01:48;98424.75;;;10.02;71.37
76594;BME280;65482;50.240;14.302;2024-03-23T06:04:14;98414.84;;;10.04;71.33
76594;BME280;65482;50.240;14.302;2024-03-23T06:06:41;98409.56;;;10.04;71.40
76594;BME280;65482;50.240;14.302;2024-03-23T06:09:08;98411.84;;;10.07;71.49
76594;BME280;65482;50.240;14.302;2024-03-23T06:11:34;98417.38;;;10.12;71.39
76594;BME280;65482;50.240;14.302;2024-03-23T06:13:59;98403.75;;;10.08;71.61
76594;BME280;65482;50.240;14.302;2024-03-23T06:16:25;98393.84;;;10.10;71.76
76594;BME280;65482;50.240;14.302;2024-03-23T06:18:53;98386.31;;;10.07;71.70
76594;BME280;65482;50.240;14.302;2024-03-23T06:21:20;98385.50;;;10.07;71.64
76594;BME280;65482;50.240;14.302;2024-03-23T06:23:46;98372.75;;;10.10;71.21
76594;BME280;65482;50.240;14.302;2024-03-23T06:26:20;98371.94;;;10.10;71.25
76594;BME280;65482;50.240;14.302;2024-03-23T06:28:47;98372.56;;;10.12;70.65
76594;BME280;65482;50.240;14.302;2024-03-23T06:31:12;98360.66;;;10.16;70.54
76594;BME280;65482;50.240;14.302;2024-03-23T06:33:38;98371.81;;;10.18;70.57
76594;BME280;65482;50.240;14.302;2024-03-23T06:36:05;98382.66;;;10.23;70.56
76594;BME280;65482;50.240;14.302;2024-03-23T06:38:31;98350.22;;;10.23;71.05
76594;BME280;65482;50.240;14.302;2024-03-23T06:40:57;98343.28;;;10.22;71.24
76594;BME280;65482;50.240;14.302;2024-03-23T06:43:23;98350.84;;;10.25;71.25
76594;BME280;65482;50.240;14.302;2024-03-23T06:45:55;98341.91;;;10.26;71.56
76594;BME280;65482;50.240;14.302;2024-03-23T06:48:20;98337.63;;;10.40;71.49
76594;BME280;65482;50.240;14.302;2024-03-23T06:50:46;98332.31;;;10.54;70.80
76594;BME280;65482;50.240;14.302;2024-03-23T06:53:13;98339.13;;;11.27;70.26
76594;BME280;65482;50.240;14.302;2024-03-23T06:55:38;98336.78;;;11.80;67.85
76594;BME280;65482;50.240;14.302;2024-03-23T06:58:04;98328.25;;;13.91;63.24
76594;BME280;65482;50.240;14.302;2024-03-23T07:00:30;98313.59;;;15.09;58.62
76594;BME280;65482;50.240;14.302;2024-03-23T07:02:56;98318.72;;;15.85;57.35
76594;BME280;65482;50.240;14.302;2024-03-23T07:05:21;98310.47;;;17.36;52.92
76594;BME280;65482;50.240;14.302;2024-03-23T07:07:47;98310.47;;;18.29;50.04
76594;BME280;65482;50.240;14.302;2024-03-23T07:10:13;98308.66;;;19.75;44.96
76594;BME280;65482;50.240;14.302;2024-03-23T07:12:39;98305.34;;;21.04;41.36
76594;BME280;65482;50.240;14.302;2024-03-23T07:15:05;98305.72;;;21.76;38.57
76594;BME280;65482;50.240;14.302;2024-03-23T07:17:31;98315.34;;;22.91;37.25
76594;BME280;65482;50.240;14.302;2024-03-23T07:19:58;98303.78;;;24.41;35.23
76594;BME280;65482;50.240;14.302;2024-03-23T07:22:24;98286.63;;;24.96;33.33
76594;BME280;65482;50.240;14.302;2024-03-23T07:24:49;98283.56;;;26.37;32.77
76594;BME280;65482;50.240;14.302;2024-03-23T07:27:15;98258.81;;;26.30;32.26
76594;BME280;65482;50.240;14.302;2024-03-23T07:29:42;98261.78;;;24.99;32.78
76594;BME280;65482;50.240;14.302;2024-03-23T07:32:08;98248.63;;;23.24;34.04
76594;BME280;65482;50.240;14.302;2024-03-23T07:34:33;98252.13;;;21.28;36.74
76594;BME280;65482;50.240;14.302;2024-03-23T07:37:03;98250.25;;;23.15;34.29
76594;BME280;65482;50.240;14.302;2024-03-23T07:39:28;98245.03;;;24.73;31.49
76594;BME280;65482;50.240;14.302;2024-03-23T07:41:54;98236.59;;;26.33;30.49
76594;BME280;65482;50.240;14.302;2024-03-23T07:44:20;98226.09;;;27.25;27.45
76594;BME280;65482;50.240;14.302;2024-03-23T07:46:46;98223.69;;;28.24;26.84
76594;BME280;65482;50.240;14.302;2024-03-23T07:49:11;98218.00;;;28.88;25.83
76594;BME280;65482;50.240;14.302;2024-03-23T07:51:37;98224.00;;;28.67;26.45
76594;BME280;65482;50.240;14.302;2024-03-23T07:54:04;98218.88;;;27.48;26.70
76594;BME280;65482;50.240;14.302;2024-03-23T07:56:30;98213.66;;;26.96;28.05
76594;BME280;65482;50.240;14.302;2024-03-23T07:58:56;98208.75;;;27.12;28.27
76594;BME280;65482;50.240;14.302;2024-03-23T08:01:22;98209.94;;;27.33;27.16
76594;BME280;65482;50.240;14.302;2024-03-23T08:03:49;98206.72;;;27.31;26.65
76594;BME280;65482;50.240;14.302;2024-03-23T08:06:17;98200.41;;;26.15;28.16
76594;BME280;65482;50.240;14.302;2024-03-23T08:08:44;98190.75;;;25.33;28.49
76594;BME280;65482;50.240;14.302;2024-03-23T08:11:10;98182.97;;;25.69;28.94
76594;BME280;65482;50.240;14.302;2024-03-23T08:13:39;98184.34;;;25.67;28.87
76594;BME280;65482;50.240;14.302;2024-03-23T08:16:05;98174.13;;;25.20;29.22
76594;BME280;65482;50.240;14.302;2024-03-23T08:18:31;98174.44;;;25.19;29.74
76594;BME280;65482;50.240;14.302;2024-03-23T08:21:06;98170.41;;;25.59;30.10
76594;BME280;65482;50.240;14.302;2024-03-23T08:23:35;98176.75;;;25.88;29.53
76594;BME280;65482;50.240;14.302;2024-03-23T08:26:12;98170.03;;;26.04;29.09
76594;BME280;65482;50.240;14.302;2024-03-23T08:28:38;98168.94;;;25.48;30.16
76594;BME280;65482;50.240;14.302;2024-03-23T08:31:10;98157.91;;;24.19;31.01
76594;BME280;65482;50.240;14.302;2024-03-23T08:33:36;98164.41;;;23.78;31.99
76594;BME280;65482;50.240;14.302;2024-03-23T08:36:06;98168.63;;;22.64;33.23
76594;BME280;65482;50.240;14.302;2024-03-23T08:38:33;98152.78;;;22.22;34.33
76594;BME280;65482;50.240;14.302;2024-03-23T08:41:03;98154.38;;;21.82;34.76
76594;BME280;65482;50.240;14.302;2024-03-23T08:43:29;98158.28;;;21.38;35.45
76594;BME280;65482;50.240;14.302;2024-03-23T08:46:08;98158.97;;;21.03;36.36
76594;BME280;65482;50.240;14.302;2024-03-23T08:48:35;98158.56;;;20.74;37.19
76594;BME280;65482;50.240;14.302;2024-03-23T08:51:03;98160.31;;;20.58;37.33
76594;BME280;65482;50.240;14.302;2024-03-23T08:53:30;98167.53;;;20.20;37.27
76594;BME280;65482;50.240;14.302;2024-03-23T08:55:57;98163.25;;;20.19;37.94
76594;BME280;65482;50.240;14.302;2024-03-23T08:58:24;98164.97;;;20.03;38.05
76594;BME280;65482;50.240;14.302;2024-03-23T09:00:52;98166.16;;;19.85;38.31
76594;BME280;65482;50.240;14.302;2024-03-23T09:03:19;98167.28;;;19.62;39.21
76594;BME280;65482;50.240;14.302;2024-03-23T09:05:45;98165.81;;;19.27;39.70
76594;BME280;65482;50.240;14.302;2024-03-23T09:08:12;98165.56;;;18.84;39.83
76594;BME280;65482;50.240;14.302;2024-03-23T09:10:39;98162.22;;;18.21;41.08
76594;BME280;65482;50.240;14.302;2024-03-23T09:13:05;98179.50;;;17.85;42.04
76594;BME280;65482;50.240;14.302;2024-03-23T09:15:36;98170.56;;;17.50;43.25
76594;BME280;65482;50.240;14.302;2024-03-23T09:18:02;98173.78;;;17.24;43.54
76594;BME280;65482;50.240;14.302;2024-03-23T09:20:32;98181.38;;;16.92;44.00
76594;BME280;65482;50.240;14.302;2024-03-23T09:22:57;98178.22;;;16.71;44.49
76594;BME280;65482;50.240;14.302;2024-03-23T09:25:23;98192.00;;;16.33;45.52
76594;BME280;65482;50.240;14.302;2024-03-23T09:27:49;98186.88;;;15.96;46.20
76594;BME280;65482;50.240;14.302;2024-03-23T09:30:15;98191.25;;;15.71;47.52
76594;BME280;65482;50.240;14.302;2024-03-23T09:32:42;98203.19;;;15.50;47.91
76594;BME280;65482;50.240;14.302;2024-03-23T09:35:08;98210.47;;;15.25;48.02
76594;BME280;65482;50.240;14.302;2024-03-23T09:37:34;98210.69;;;15.05;48.58
76594;BME280;65482;50.240;14.302;2024-03-23T09:40:00;98207.94;;;14.93;48.97
76594;BME280;65482;50.240;14.302;2024-03-23T09:42:25;98202.94;;;14.85;49.38
76594;BME280;65482;50.240;14.302;2024-03-23T09:44:51;98207.56;;;14.71;50.58
76594;BME280;65482;50.240;14.302;2024-03-23T09:47:17;98181.69;;;14.66;51.42
76594;BME280;65482;50.240;14.302;2024-03-23T09:49:43;98188.09;;;14.59;52.21
76594;BME280;65482;50.240;14.302;2024-03-23T09:52:09;98199.16;;;14.49;53.24
76594;BME280;65482;50.240;14.302;2024-03-23T09:54:36;98197.47;;;14.55;52.78
76594;BME280;65482;50.240;14.302;2024-03-23T09:57:01;98207.88;;;14.56;52.80
76594;BME280;65482;50.240;14.302;2024-03-23T09:59:29;98212.09;;;14.64;53.15
76594;BME280;65482;50.240;14.302;2024-03-23T10:01:55;98212.47;;;14.42;52.60
76594;BME280;65482;50.240;14.302;2024-03-23T10:04:40;98217.91;;;14.22;53.37
76594;BME280;65482;50.240;14.302;2024-03-23T10:07:18;98235.00;;;14.33;53.05
76594;BME280;65482;50.240;14.302;2024-03-23T10:09:45;98226.72;;;14.23;52.61
76594;BME280;65482;50.240;14.302;2024-03-23T10:12:16;98232.63;;;14.25;52.79
76594;BME280;65482;50.240;14.302;2024-03-23T10:14:42;98236.88;;;14.26;52.66
76594;BME280;65482;50.240;14.302;2024-03-23T10:17:15;98238.38;;;14.15;52.90
76594;BME280;65482;50.240;14.302;2024-03-23T10:19:45;98243.13;;;14.06;53.18
76594;BME280;65482;50.240;14.302;2024-03-23T10:22:17;98245.03;;;13.99;53.38
76594;BME280;65482;50.240;14.302;2024-03-23T10:24:43;98262.41;;;13.88;53.79
76594;BME280;65482;50.240;14.302;2024-03-23T10:27:09;98251.03;;;13.81;54.04
76594;BME280;65482;50.240;14.302;2024-03-23T10:29:35;98268.75;;;13.87;54.15
76594;BME280;65482;50.240;14.302;2024-03-23T10:32:13;98264.44;;;13.93;54.19
76594;BME280;65482;50.240;14.302;2024-03-23T10:34:40;98273.47;;;14.10;55.04
76594;BME280;65482;50.240;14.302;2024-03-23T10:37:06;98270.34;;;13.95;54.73
76594;BME280;65482;50.240;14.302;2024-03-23T10:39:42;98277.09;;;13.91;55.58
76594;BME280;65482;50.240;14.302;2024-03-23T10:42:09;98276.13;;;14.10;54.60
76594;BME280;65482;50.240;14.302;2024-03-23T10:44:38;98265.66;;;14.22;54.40
76594;BME280;65482;50.240;14.302;2024-03-23T10:47:04;98282.91;;;14.38;53.86
76594;BME280;65482;50.240;14.302;2024-03-23T10:49:32;98278.78;;;14.42;53.98
76594;BME280;65482;50.240;14.302;2024-03-23T10:51:59;98282.00;;;14.51;53.36
76594;BME280;65482;50.240;14.302;2024-03-23T10:54:25;98282.06;;;14.44;53.43
76594;BME280;65482;50.240;14.302;2024-03-23T10:57:13;98283.16;;;14.62;53.05
76594;BME280;65482;50.240;14.302;2024-03-23T10:59:41;98281.06;;;14.70;52.98
76594;BME280;65482;50.240;14.302;2024-03-23T11:02:18;98274.81;;;14.83;52.44
76594;BME280;65482;50.240;14.302;2024-03-23T11:04:45;98267.16;;;14.94;52.66
76594;BME280;65482;50.240;14.302;2024-03-23T11:07:30;98273.97;;;15.08;51.24
76594;BME280;65482;50.240;14.302;2024-03-23T11:09:57;98276.19;;;15.29;50.86
76594;BME280;65482;50.240;14.302;2024-03-23T11:15:11;98288.03;;;14.90;50.87
76594;BME280;65482;50.240;14.302;2024-03-23T11:17:37;98289.63;;;14.73;52.81
76594;BME280;65482;50.240;14.302;2024-03-23T11:20:05;98349.59;;;14.48;55.03
76594;BME280;65482;50.240;14.302;2024-03-23T11:22:41;98366.81;;;13.87;56.75
76594;BME280;65482;50.240;14.302;2024-03-23T11:27:48;98363.06;;;13.43;57.73
76594;BME280;65482;50.240;14.302;2024-03-23T11:30:18;98381.00;;;13.35;57.38
76594;BME280;65482;50.240;14.302;2024-03-23T11:32:49;98396.47;;;13.24;55.93
76594;BME280;65482;50.240;14.302;2024-03-23T11:35:41;98415.81;;;13.25;56.15
76594;BME280;65482;50.240;14.302;2024-03-23T11:38:12;98423.97;;;13.10;55.42
76594;BME280;65482;50.240;14.302;2024-03-23T11:40:42;98433.13;;;12.94;54.93
76594;BME280;65482;50.240;14.302;2024-03-23T11:43:10;98444.34;;;13.09;54.12
76594;BME280;65482;50.240;14.302;2024-03-23T11:45:39;98439.44;;;13.26;53.08
76594;BME280;65482;50.240;14.302;2024-03-23T11:50:33;98448.25;;;13.33;50.93
76594;BME280;65482;50.240;14.302;2024-03-23T11:53:19;98436.84;;;13.33;50.64
76594;BME280;65482;50.240;14.302;2024-03-23T11:55:49;98454.09;;;13.29;50.72
76594;BME280;65482;50.240;14.302;2024-03-23T11:58:16;98465.13;;;13.26;51.03
76594;BME280;65482;50.240;14.302;2024-03-23T12:00:42;98463.47;;;13.18;51.17
76594;BME280;65482;50.240;14.302;2024-03-23T12:03:07;98474.31;;;13.37;50.03
76594;BME280;65482;50.240;14.302;2024-03-23T12:05:36;98488.16;;;13.32;49.86
76594;BME280;65482;50.240;14.302;2024-03-23T12:08:20;98498.13;;;13.37;49.92
76594;BME280;65482;50.240;14.302;2024-03-23T12:10:48;98493.66;;;13.30;48.96
76594;BME280;65482;50.240;14.302;2024-03-23T12:13:19;98490.16;;;13.17;48.17
76594;BME280;65482;50.240;14.302;2024-03-23T12:15:50;98482.59;;;13.00;47.60
76594;BME280;65482;50.240;14.302;2024-03-23T12:18:17;98486.47;;;13.11;48.06
76594;BME280;65482;50.240;14.302;2024-03-23T12:20:43;98493.00;;;13.22;47.70
76594;BME280;65482;50.240;14.302;2024-03-23T12:23:11;98491.16;;;13.09;47.13
76594;BME280;65482;50.240;14.302;2024-03-23T12:25:40;98497.03;;;12.91;47.35
76594;BME280;65482;50.240;14.302;2024-03-23T12:28:07;98507.66;;;12.98;47.07
76594;BME280;65482;50.240;14.302;2024-03-23T12:30:35;98502.53;;;12.96;46.21
76594;BME280;65482;50.240;14.302;2024-03-23T12:33:01;98532.47;;;12.90;44.89
76594;BME280;65482;50.240;14.302;2024-03-23T12:35:27;98545.22;;;12.73;45.43
76594;BME280;65482;50.240;14.302;2024-03-23T12:37:52;98535.59;;;12.59;44.69
76594;BME280;65482;50.240;14.302;2024-03-23T12:40:18;98529.69;;;12.50;44.51
76594;BME280;65482;50.240;14.302;2024-03-23T12:42:43;98535.91;;;12.36;45.08
76594;BME280;65482;50.240;14.302;2024-03-23T12:45:10;98544.88;;;12.41;45.49
76594;BME280;65482;50.240;14.302;2024-03-23T12:47:36;98558.94;;;12.42;45.21
76594;BME280;65482;50.240;14.302;2024-03-23T12:50:02;98566.81;;;12.35;43.57
76594;BME280;65482;50.240;14.302;2024-03-23T12:52:28;98581.94;;;12.48;44.66
76594;BME280;65482;50.240;14.302;2024-03-23T12:54:56;98607.97;;;12.44;44.53
76594;BME280;65482;50.240;14.302;2024-03-23T12:57:25;98621.09;;;12.31;43.99
76594;BME280;65482;50.240;14.302;2024-03-23T12:59:52;98613.31;;;12.23;43.42
76594;BME280;65482;50.240;14.302;2024-03-23T13:02:20;98627.59;;;12.28;43.99
76594;BME280;65482;50.240;14.302;2024-03-23T13:04:52;98634.16;;;12.39;44.49
76594;BME280;65482;50.240;14.302;2024-03-23T13:07:19;98633.38;;;12.45;44.65
76594;BME280;65482;50.240;14.302;2024-03-23T13:09:45;98641.38;;;12.52;44.19
76594;BME280;65482;50.240;14.302;2024-03-23T13:12:11;98642.97;;;12.46;43.73
76594;BME280;65482;50.240;14.302;2024-03-23T13:14:41;98645.84;;;12.23;43.73
76594;BME280;65482;50.240;14.302;2024-03-23T13:17:07;98652.50;;;12.12;44.42
76594;BME280;65482;50.240;14.302;2024-03-23T13:19:34;98645.34;;;12.06;43.97
76594;BME280;65482;50.240;14.302;2024-03-23T13:22:00;98641.03;;;12.05;44.33
76594;BME280;65482;50.240;14.302;2024-03-23T13:24:27;98675.34;;;11.99;44.61
76594;BME280;65482;50.240;14.302;2024-03-23T13:26:54;98673.72;;;11.98;44.14
76594;BME280;65482;50.240;14.302;2024-03-23T13:29:21;98695.56;;;12.06;44.13
76594;BME280;65482;50.240;14.302;2024-03-23T13:31:48;98703.81;;;11.97;43.48
76594;BME280;65482;50.240;14.302;2024-03-23T13:34:14;98692.16;;;12.12;43.13
76594;BME280;65482;50.240;14.302;2024-03-23T13:36:43;98683.00;;;12.15;43.12
76594;BME280;65482;50.240;14.302;2024-03-23T13:39:09;98673.19;;;11.87;43.31
76594;BME280;65482;50.240;14.302;2024-03-23T13:41:38;98667.41;;;11.77;43.52
76594;BME280;65482;50.240;14.302;2024-03-23T13:44:05;98668.56;;;11.89;43.52
76594;BME280;65482;50.240;14.302;2024-03-23T13:46:30;98667.56;;;11.90;42.97
76594;BME280;65482;50.240;14.302;2024-03-23T13:48:56;98675.19;;;11.64;43.66
76594;BME280;65482;50.240;14.302;2024-03-23T13:51:26;98707.16;;;11.69;44.13